createdAt,value
2018-02-06T00:00:22.766Z,42.17
2018-02-06T00:02:51.488Z,41.10
2018-02-06T00:05:21.176Z,44.13
2018-02-06T00:07:49.851Z,42.92
2018-02-06T00:10:18.644Z,43.15
2018-02-06T00:12:48.010Z,38.05
2018-02-06T00:15:16.665Z,38.28
2018-02-06T00:17:45.457Z,40.35
2018-02-06T00:20:14.139Z,39.55
2018-02-06T00:22:50.770Z,44.45
2018-02-06T00:25:21.180Z,40.47
2018-02-06T00:27:50.023Z,40.72
2018-02-06T00:30:18.734Z,43.38
2018-02-06T00:32:48.645Z,45.17
2018-02-06T00:35:17.356Z,35.33
2018-02-06T00:37:46.033Z,42.20
2018-02-06T00:40:15.089Z,45.10
2018-02-06T00:42:46.997Z,41.35
2018-02-06T00:45:15.817Z,42.72
2018-02-06T00:47:44.462Z,41.97
2018-02-06T00:50:13.120Z,40.75
2018-02-06T00:52:42.690Z,40.95
2018-02-06T00:55:11.314Z,40.28
2018-02-06T00:57:41.373Z,51.28
2018-02-06T01:00:11.401Z,43.80
2018-02-06T01:02:41.385Z,43.17
2018-02-06T01:05:17.955Z,47.58
2018-02-06T01:07:46.712Z,42.13
2018-02-06T01:10:15.383Z,41.90
2018-02-06T01:12:46.115Z,39.53
2018-02-06T01:15:14.874Z,42.45
2018-02-06T01:17:44.487Z,40.28
2018-02-06T01:20:13.243Z,48.67
2018-02-06T01:22:41.926Z,41.35
2018-02-06T01:25:10.795Z,40.00
2018-02-06T01:27:39.465Z,43.70
2018-02-06T01:30:08.848Z,47.35
2018-02-06T01:32:37.563Z,41.20
2018-02-06T01:35:06.330Z,46.50
2018-02-06T01:37:35.852Z,44.90
2018-02-06T01:40:05.282Z,46.05
2018-02-06T01:42:34.354Z,47.35
2018-02-06T01:45:03.275Z,43.50
2018-02-06T01:47:32.538Z,46.60
2018-02-06T01:50:05.586Z,39.25
2018-02-06T01:52:34.399Z,46.75
2018-02-06T01:55:03.094Z,48.67
2018-02-06T01:57:31.776Z,43.05
2018-02-06T02:00:00.566Z,44.25
2018-02-06T02:02:31.287Z,44.50
2018-02-06T02:05:00.899Z,46.50
2018-02-06T02:07:29.633Z,44.85
2018-02-06T02:09:59.096Z,42.10
2018-02-06T02:12:27.818Z,46.60
2018-02-06T02:14:56.506Z,42.85
2018-02-06T02:17:33.182Z,43.53
2018-02-06T02:20:02.613Z,51.30
2018-02-06T02:22:32.141Z,48.05
2018-02-06T02:25:01.120Z,52.72
2018-02-06T02:27:30.493Z,50.58
2018-02-06T02:29:59.225Z,42.28
2018-02-06T02:32:27.864Z,54.15
2018-02-06T02:34:56.589Z,48.03
2018-02-06T02:37:26.056Z,44.58
2018-02-06T02:39:55.023Z,45.88
2018-02-06T04:39:13.945Z,55.83
2018-02-06T04:41:42.726Z,60.83
2018-02-06T04:44:11.759Z,53.80
2018-02-06T04:46:40.474Z,52.58
2018-02-06T04:49:09.679Z,53.25
2018-02-06T04:51:38.592Z,61.75
2018-02-06T04:54:07.308Z,54.00
2018-02-06T04:56:35.983Z,59.78
2018-02-06T04:59:04.722Z,62.42
2018-02-06T05:01:33.363Z,58.75
2018-02-06T05:04:03.574Z,59.65
2018-02-06T05:06:32.384Z,51.47
2018-02-06T05:09:01.816Z,60.25
2018-02-06T05:11:31.559Z,65.50
2018-02-06T05:14:00.246Z,61.42
2018-02-06T05:16:28.907Z,68.15
2018-02-06T05:18:57.630Z,59.90
2018-02-06T05:21:26.315Z,56.70
2018-02-06T05:23:55.033Z,54.95
2018-02-06T05:26:23.659Z,65.50
2018-02-06T05:28:52.338Z,57.75
2018-02-06T05:31:22.000Z,67.47
2018-02-06T05:33:51.255Z,55.12
2018-02-06T05:36:20.783Z,62.08
2018-02-06T05:38:49.429Z,51.40
2018-02-06T05:41:18.882Z,55.35
2018-02-06T05:43:48.026Z,58.25
2018-02-06T05:46:16.783Z,62.42
2018-02-06T05:48:45.533Z,55.60
2018-02-06T05:51:14.975Z,54.00
2018-02-06T05:53:45.414Z,54.45
2018-02-06T05:56:14.504Z,49.67
2018-02-06T05:58:43.947Z,57.42
2018-02-06T06:01:12.796Z,53.67
2018-02-06T06:03:41.451Z,57.97
2018-02-06T06:06:10.180Z,49.25
2018-02-06T06:08:39.006Z,58.50
2018-02-06T06:11:07.726Z,53.55
2018-02-06T06:13:37.310Z,48.13
2018-02-06T06:16:05.982Z,53.03
2018-02-06T06:18:34.683Z,49.72
2018-02-06T06:21:03.444Z,53.25
2018-02-06T06:23:32.179Z,57.20
2018-02-06T06:26:02.442Z,51.08
2018-02-06T06:28:31.962Z,59.42
2018-02-06T06:31:00.624Z,56.92
2018-02-06T06:33:29.290Z,56.45
2018-02-06T06:35:59.366Z,51.50
2018-02-06T06:38:28.208Z,56.88
2018-02-06T06:40:56.925Z,57.85
2018-02-06T06:43:25.715Z,60.47
2018-02-06T06:46:06.980Z,59.33
2018-02-06T06:48:35.898Z,55.70
2018-02-06T06:51:06.184Z,49.50
2018-02-06T06:53:34.937Z,62.58
2018-02-06T06:56:03.949Z,59.17
2018-02-06T06:58:32.587Z,55.67
2018-02-06T07:01:01.373Z,57.70
2018-02-06T07:03:30.471Z,53.25
2018-02-06T07:05:59.781Z,54.58
2018-02-06T07:08:31.980Z,52.92
2018-02-06T07:11:01.564Z,59.97
2018-02-06T07:13:31.004Z,51.13
2018-02-06T07:15:59.746Z,54.58
2018-02-06T07:18:28.756Z,49.38
2018-02-06T07:20:57.483Z,48.67
2018-02-06T07:23:26.759Z,54.03
2018-02-06T07:25:55.383Z,53.13
2018-02-06T07:28:24.869Z,52.20
2018-02-06T07:30:55.119Z,46.60
2018-02-06T07:33:26.479Z,50.95
2018-02-06T07:35:55.591Z,47.65
2018-02-06T07:38:24.763Z,49.95
2018-02-06T07:40:54.498Z,49.83
2018-02-06T07:43:23.972Z,44.08
2018-02-06T07:45:53.543Z,46.40
2018-02-06T07:48:23.395Z,48.17
2018-02-06T07:50:52.918Z,47.95
2018-02-06T07:53:22.600Z,43.75
2018-02-06T07:55:51.334Z,45.95
2018-02-06T07:58:20.099Z,40.97
2018-02-06T08:00:48.799Z,49.13
2018-02-06T08:03:18.417Z,45.22
2018-02-06T08:05:47.129Z,44.35
2018-02-06T08:08:15.821Z,45.17
2018-02-06T08:10:45.038Z,49.05
2018-02-06T08:13:13.823Z,45.78
2018-02-06T08:15:44.557Z,39.75
2018-02-06T08:18:13.970Z,40.17
2018-02-06T08:20:42.633Z,37.33
2018-02-06T08:23:11.532Z,45.28
2018-02-06T08:25:40.411Z,42.00
2018-02-06T08:28:09.070Z,37.33
2018-02-06T08:30:37.768Z,42.85
2018-02-06T08:33:06.407Z,42.38
2018-02-06T08:35:35.210Z,40.75
2018-02-06T08:38:03.932Z,51.75
2018-02-06T08:40:32.563Z,46.53
2018-02-06T08:43:01.226Z,41.85
2018-02-06T08:45:30.125Z,39.55
2018-02-06T08:47:59.121Z,39.83
2018-02-06T08:50:29.637Z,45.30
2018-02-06T08:52:58.466Z,44.60
2018-02-06T08:55:27.320Z,44.17
2018-02-06T08:57:56.429Z,42.33
2018-02-06T09:00:26.097Z,39.78
2018-02-06T09:02:55.251Z,43.58
2018-02-06T09:05:24.100Z,42.25
2018-02-06T09:07:52.848Z,41.33
2018-02-06T09:10:21.588Z,40.88
2018-02-06T09:12:50.422Z,38.50
2018-02-06T09:15:19.181Z,42.70
2018-02-06T09:17:47.958Z,43.00
2018-02-06T09:20:16.868Z,44.53
2018-02-06T09:22:46.327Z,43.58
2018-02-06T09:25:15.712Z,37.92
2018-02-06T09:27:44.391Z,34.90
2018-02-06T09:30:13.034Z,40.00
2018-02-06T09:32:41.746Z,36.25
2018-02-06T09:35:10.444Z,36.60
2018-02-06T09:37:39.195Z,40.10
2018-02-06T09:40:08.641Z,38.38
2018-02-06T09:42:37.399Z,36.70
2018-02-06T09:45:06.106Z,35.33
2018-02-06T09:47:34.769Z,34.78
2018-02-06T09:50:03.450Z,39.10
2018-02-06T09:52:32.916Z,37.13
2018-02-06T09:55:02.318Z,43.05
2018-02-06T09:57:30.945Z,37.17
2018-02-06T09:59:59.592Z,36.50
2018-02-06T10:02:28.362Z,43.42
2018-02-06T10:04:57.128Z,37.85
2018-02-06T10:07:25.794Z,36.15
2018-02-06T10:09:54.502Z,33.75
2018-02-06T10:12:23.187Z,35.80
2018-02-06T10:14:52.615Z,30.08
2018-02-06T10:17:21.299Z,37.83
2018-02-06T10:19:50.758Z,36.75
2018-02-06T10:22:19.462Z,35.33
2018-02-06T10:24:48.202Z,39.55
2018-02-06T10:27:16.921Z,34.40
2018-02-06T10:29:46.323Z,33.33
2018-02-06T10:32:14.924Z,30.27
2018-02-06T10:34:43.599Z,40.25
2018-02-06T10:37:12.356Z,31.05
2018-02-06T10:39:41.014Z,40.05
2018-02-06T10:42:09.717Z,36.88
2018-02-06T10:44:38.433Z,38.40
2018-02-06T10:47:07.090Z,40.20
2018-02-06T10:49:36.199Z,38.97
2018-02-06T10:52:15.610Z,36.65
2018-02-06T10:54:44.262Z,37.95
2018-02-06T10:57:14.132Z,35.78
2018-02-06T10:59:42.862Z,32.03
2018-02-06T11:02:12.247Z,30.00
2018-02-06T11:04:41.698Z,32.05
2018-02-06T11:07:10.314Z,34.60
2018-02-06T11:09:38.926Z,36.95
2018-02-06T11:12:07.544Z,32.28
2018-02-06T11:14:36.967Z,33.75
2018-02-06T11:17:06.094Z,33.22
2018-02-06T11:19:46.493Z,33.60
2018-02-06T11:22:15.216Z,32.92
2018-02-06T11:24:43.846Z,28.45
2018-02-06T11:27:12.488Z,32.88
2018-02-06T11:29:41.887Z,30.23
2018-02-06T11:32:10.575Z,32.00
2018-02-06T11:34:39.338Z,44.13
2018-02-06T11:37:07.953Z,37.33
2018-02-06T11:39:37.433Z,38.83
2018-02-06T11:42:06.054Z,38.38
2018-02-06T11:44:34.739Z,32.80
2018-02-06T11:47:19.016Z,29.05
2018-02-06T11:49:47.725Z,26.92
2018-02-06T11:52:16.331Z,27.48
2018-02-06T11:54:45.063Z,30.73
2018-02-06T11:57:13.855Z,28.87
2018-02-06T11:59:46.480Z,30.73
2018-02-06T12:02:17.323Z,33.35
2018-02-06T12:04:46.125Z,32.40
2018-02-06T12:07:14.871Z,30.65
2018-02-06T12:09:43.617Z,30.23
2018-02-06T12:12:12.242Z,30.58
2018-02-06T12:14:41.722Z,29.48
2018-02-06T12:17:10.366Z,30.48
2018-02-06T12:19:39.091Z,26.58
2018-02-06T12:22:08.731Z,31.67
2018-02-06T12:24:37.389Z,29.50
2018-02-06T12:27:06.252Z,30.92
2018-02-06T12:29:35.643Z,26.35
2018-02-06T12:32:04.347Z,29.27
2018-02-06T12:34:33.260Z,26.73
2018-02-06T12:37:01.979Z,28.77
2018-02-06T12:39:30.711Z,26.37
2018-02-06T12:41:59.465Z,28.13
2018-02-06T12:44:28.143Z,28.37
2018-02-06T12:46:57.189Z,29.77
2018-02-06T12:49:26.248Z,29.13
2018-02-06T12:51:54.977Z,26.33
2018-02-06T12:54:24.754Z,24.27
2018-02-06T12:56:53.624Z,28.33
2018-02-06T12:59:22.366Z,31.57
2018-02-06T13:01:51.940Z,27.40
2018-02-06T13:04:20.790Z,26.50
2018-02-06T13:06:49.921Z,27.40
2018-02-06T13:09:18.721Z,26.93
2018-02-06T13:11:47.510Z,29.30
2018-02-06T13:14:16.310Z,29.53
2018-02-06T13:16:45.932Z,31.33
2018-02-06T13:19:14.668Z,30.23
2018-02-06T13:21:43.694Z,35.23
2018-02-06T13:24:12.478Z,34.70
2018-02-06T13:26:41.970Z,32.47
2018-02-06T13:29:11.055Z,30.45
2018-02-06T13:31:40.197Z,29.07
2018-02-06T13:34:09.177Z,32.05
2018-02-06T13:36:37.958Z,36.37
2018-02-06T13:39:06.586Z,33.37
2018-02-06T13:41:35.407Z,28.20
2018-02-06T13:44:05.090Z,32.80
2018-02-06T13:46:34.618Z,30.63
2018-02-06T13:49:04.203Z,31.90
2018-02-06T13:51:33.257Z,28.93
2018-02-06T13:54:02.359Z,36.67
2018-02-06T13:56:31.572Z,33.33
2018-02-06T13:59:00.312Z,37.83
2018-02-06T14:01:29.068Z,33.00
2018-02-06T14:03:57.745Z,32.75
2018-02-06T14:06:26.943Z,33.58
2018-02-06T14:08:57.394Z,33.90
2018-02-06T14:11:27.024Z,35.50
2018-02-06T14:13:56.107Z,35.30
2018-02-06T14:16:24.943Z,38.43
2018-02-06T14:18:53.758Z,39.00
2018-02-06T14:21:27.284Z,36.17
2018-02-06T14:23:57.292Z,38.40
2018-02-06T14:26:26.095Z,38.10
2018-02-06T14:28:54.953Z,35.05
2018-02-06T14:31:23.634Z,35.30
2018-02-06T14:33:52.509Z,36.28
2018-02-06T14:36:24.914Z,36.97
2018-02-06T14:38:53.671Z,41.30
2018-02-06T14:41:24.416Z,39.10
2018-02-06T14:43:53.791Z,41.03
2018-02-06T14:46:22.917Z,34.60
2018-02-06T14:48:51.933Z,40.58
2018-02-06T14:51:21.295Z,38.28
2018-02-06T14:53:51.178Z,42.05
2018-02-06T14:56:21.030Z,42.62
2018-02-06T14:58:50.787Z,45.47
2018-02-06T15:01:20.081Z,40.33
2018-02-06T15:03:49.606Z,41.45
2018-02-06T15:06:18.923Z,42.35
2018-02-06T15:08:48.470Z,45.65
2018-02-06T15:11:18.488Z,43.05
2018-02-06T15:13:47.208Z,41.75
2018-02-06T15:16:16.789Z,40.92
2018-02-06T15:18:45.554Z,50.85
2018-02-06T15:21:14.997Z,50.15
2018-02-06T15:23:44.389Z,39.47
2018-02-06T15:26:13.911Z,43.33
2018-02-06T15:28:42.669Z,46.40
2018-02-06T15:31:12.990Z,46.97
2018-02-06T15:33:43.610Z,49.92
2018-02-06T15:36:13.171Z,44.38
2018-02-06T15:38:41.884Z,35.85
2018-02-06T15:41:10.583Z,46.70
2018-02-06T15:43:39.525Z,49.00
2018-02-06T15:46:08.321Z,43.95
2018-02-06T15:48:37.528Z,44.78
2018-02-06T15:51:07.892Z,40.83
2018-02-06T15:53:37.493Z,47.38
2018-02-06T15:56:07.284Z,43.35
2018-02-06T15:58:37.371Z,45.83
2018-02-06T16:01:07.018Z,51.35
2018-02-06T16:03:35.726Z,48.25
2018-02-06T16:06:04.749Z,40.22
2018-02-06T16:08:33.852Z,41.90
2018-02-06T16:11:05.226Z,44.08
2018-02-06T16:13:34.162Z,46.15
2018-02-06T16:16:02.793Z,44.08
2018-02-06T16:18:32.210Z,45.03
2018-02-06T16:21:00.935Z,46.95
2018-02-06T16:23:31.149Z,43.53
2018-02-06T16:25:59.973Z,47.83
2018-02-06T16:28:28.801Z,50.40
2018-02-06T16:30:58.281Z,41.58
2018-02-06T16:33:27.014Z,49.60
2018-02-06T16:35:55.650Z,54.13
2018-02-06T16:38:24.400Z,62.53
2018-02-06T16:40:53.054Z,56.53
2018-02-06T16:43:21.712Z,53.17
2018-02-06T16:45:51.397Z,57.22
2018-02-06T16:48:20.807Z,41.63
2018-02-06T16:50:49.583Z,53.20
2018-02-06T16:53:18.208Z,55.88
2018-02-06T16:55:46.861Z,51.60
2018-02-06T16:58:15.569Z,56.10
2018-02-06T17:00:44.185Z,52.65
2018-02-06T17:03:14.088Z,49.75
2018-02-06T17:05:43.821Z,52.62
2018-02-06T17:08:13.027Z,50.92
2018-02-06T17:10:41.829Z,58.08
2018-02-06T17:13:10.582Z,56.63
2018-02-06T17:15:40.184Z,52.80
2018-02-06T17:18:08.898Z,55.45
2018-02-06T17:20:40.042Z,58.50
2018-02-06T17:23:09.666Z,55.45
2018-02-06T17:25:39.153Z,64.57
2018-02-06T17:28:07.954Z,60.90
2018-02-06T17:30:37.478Z,58.58
2018-02-06T17:33:06.100Z,61.70
2018-02-06T17:35:34.876Z,57.05
2018-02-06T17:38:03.496Z,59.00
2018-02-06T17:40:32.275Z,60.55
2018-02-06T17:43:00.911Z,53.67
2018-02-06T17:45:29.553Z,52.25
2018-02-06T17:47:59.239Z,54.05
2018-02-06T17:50:27.962Z,51.60
2018-02-06T17:52:56.806Z,56.28
2018-02-06T17:55:26.220Z,51.13
2018-02-06T17:57:54.960Z,52.22
2018-02-06T18:00:23.674Z,60.92
2018-02-06T18:02:52.304Z,53.83
2018-02-06T18:05:21.033Z,56.35
2018-02-06T18:07:49.675Z,58.78
2018-02-06T18:10:19.078Z,56.75
2018-02-06T18:12:48.653Z,53.20
2018-02-06T18:15:17.339Z,58.97
2018-02-06T18:17:47.070Z,51.00
2018-02-06T18:20:15.817Z,58.45
2018-02-06T18:22:44.460Z,49.85
2018-02-06T18:25:14.151Z,53.90
2018-02-06T18:27:42.808Z,56.97
2018-02-06T18:30:11.534Z,63.45
2018-02-06T18:32:40.856Z,65.07
2018-02-06T18:35:10.810Z,58.87
2018-02-06T18:37:40.446Z,51.13
2018-02-06T18:40:09.092Z,60.88
2018-02-06T18:42:38.823Z,66.18
2018-02-06T18:45:07.480Z,64.45
2018-02-06T18:47:36.954Z,68.15
2018-02-06T18:50:05.809Z,61.20
2018-02-06T18:52:34.706Z,58.85
2018-02-06T18:55:03.845Z,77.40
2018-02-06T18:57:32.564Z,68.50
2018-02-06T19:00:01.219Z,68.68
2018-02-06T19:02:30.072Z,61.83
2018-02-06T19:04:59.490Z,67.78
2018-02-06T19:07:28.307Z,76.93
2018-02-06T19:09:56.974Z,78.47
2018-02-06T19:12:25.786Z,86.63
2018-02-06T19:14:54.665Z,83.87
2018-02-06T19:17:23.354Z,83.82
2018-02-06T19:19:52.582Z,103.70
2018-02-06T19:22:21.188Z,102.00
2018-02-06T19:24:50.697Z,88.85
2018-02-06T19:27:19.537Z,100.47
2018-02-06T19:29:49.138Z,86.05
2018-02-06T19:32:17.975Z,92.57
2018-02-06T19:34:46.619Z,88.68
2018-02-06T19:37:16.147Z,83.62
2018-02-06T19:39:45.018Z,68.82
2018-02-06T19:42:17.446Z,86.68
2018-02-06T19:44:46.206Z,85.72
2018-02-06T19:47:15.371Z,72.25
2018-02-06T19:49:44.814Z,75.30
2018-02-06T19:52:15.446Z,85.82
2018-02-06T19:54:44.288Z,75.80
2018-02-06T19:57:13.008Z,79.87
2018-02-06T19:59:42.731Z,79.45
2018-02-06T20:02:11.688Z,76.82
2018-02-06T20:04:40.552Z,76.53
2018-02-06T20:07:09.406Z,76.37
2018-02-06T20:09:38.327Z,72.68
2018-02-06T20:12:07.043Z,82.28
2018-02-06T20:14:35.720Z,74.80
2018-02-06T20:17:06.020Z,78.07
2018-02-06T20:19:34.684Z,84.15
2018-02-06T20:22:03.662Z,81.22
2018-02-06T20:24:34.633Z,77.78
2018-02-06T20:27:04.159Z,68.60
2018-02-06T20:29:32.823Z,69.78
2018-02-06T20:32:01.518Z,70.62
2018-02-06T20:34:32.256Z,91.10
2018-02-06T20:37:00.949Z,87.68
2018-02-06T20:39:29.604Z,74.30
2018-02-06T20:41:59.662Z,75.10
2018-02-06T20:44:28.420Z,75.00
2018-02-06T20:46:58.532Z,84.60
2018-02-06T20:49:27.541Z,84.13
2018-02-06T20:51:57.259Z,81.45
2018-02-06T20:54:26.148Z,77.15
2018-02-06T20:56:54.791Z,94.45
2018-02-06T20:59:24.265Z,90.82
2018-02-06T21:01:53.466Z,73.93
2018-02-06T21:04:22.198Z,76.90
2018-02-06T21:06:52.598Z,86.28
2018-02-06T21:09:21.739Z,72.10
2018-02-06T21:11:51.245Z,79.70
2018-02-06T21:14:19.897Z,70.40
2018-02-06T21:16:48.599Z,80.85
2018-02-06T21:19:17.405Z,80.95
2018-02-06T21:21:46.108Z,80.90
2018-02-06T21:24:15.123Z,89.13
2018-02-06T21:26:43.831Z,81.18
2018-02-06T21:29:13.501Z,84.03
2018-02-06T21:31:42.394Z,88.72
2018-02-06T21:34:11.096Z,85.62
2018-02-06T21:36:39.948Z,89.15
2018-02-06T21:39:08.840Z,77.97
2018-02-06T21:41:38.559Z,73.93
2018-02-06T21:44:07.790Z,68.55
2018-02-06T21:46:38.572Z,66.25
2018-02-06T21:49:08.245Z,61.00
2018-02-06T21:51:38.565Z,57.10
2018-02-06T21:54:08.797Z,69.30
2018-02-06T21:56:37.629Z,65.28
2018-02-06T21:59:08.898Z,78.20
2018-02-06T22:01:39.856Z,74.12
2018-02-06T22:04:09.663Z,84.22
2018-02-06T22:06:40.535Z,79.37
2018-02-06T22:09:09.375Z,78.43
2018-02-06T22:11:38.284Z,72.72
2018-02-06T22:14:07.915Z,66.68
2018-02-06T22:16:37.237Z,89.30
2018-02-06T22:19:06.019Z,84.13
2018-02-06T22:21:36.079Z,98.85
2018-02-06T22:24:05.710Z,94.03
2018-02-06T22:26:34.665Z,89.55
2018-02-06T22:29:04.168Z,94.90
2018-02-06T22:31:33.620Z,82.07
2018-02-06T22:34:02.400Z,86.15
2018-02-06T22:36:31.190Z,91.68
2018-02-06T22:38:59.906Z,86.40
2018-02-06T22:41:28.631Z,87.47
2018-02-06T22:43:58.019Z,86.20
2018-02-06T22:46:26.665Z,103.25
2018-02-06T22:48:56.101Z,93.37
2018-02-06T22:51:24.826Z,78.10
2018-02-06T22:53:53.933Z,96.18
2018-02-06T22:56:25.403Z,81.60
2018-02-06T22:58:54.630Z,97.35
2018-02-06T23:01:23.612Z,113.62
2018-02-06T23:03:56.722Z,92.05
2018-02-06T23:09:06.450Z,103.65
2018-02-06T23:11:35.211Z,109.78
2018-02-06T23:14:03.960Z,104.40
2018-02-06T23:16:32.733Z,94.50
2018-02-06T23:19:02.405Z,90.80
2018-02-06T23:21:32.168Z,98.85
2018-02-06T23:24:01.013Z,105.78
2018-02-06T23:26:31.736Z,107.07
2018-02-06T23:29:42.284Z,85.38
2018-02-06T23:32:24.802Z,71.72
2018-02-06T23:34:53.988Z,72.10
2018-02-06T23:37:24.062Z,114.10
2018-02-06T23:39:52.971Z,80.25
2018-02-06T23:42:21.953Z,101.53
2018-02-06T23:44:52.327Z,103.57
2018-02-06T23:47:21.899Z,80.43
